Terminal Aerodrome Forecast
Issued by NWS

Home | Current Version | Previous Version | Text Only | Print | Product List | Glossary On
Versions: 1 2 3 4 5 6 7 8 9 10 11
000
FTUS46 KPDT 280300 AAC
TAFBDN
TAF AMD
KBDN 280335Z 2804/2824 24005KT P6SM VCSH BKN040 OVC060
     FM281000 26013KT P6SM BKN050
     FM281500 32007KT P6SM SCT050 BKN120=

USA.gov is the U.S. government's official web portal to all federal, state and local government web resources and services.